• Join FlightAware (Why Join?)
  • Login
  • US Flag 
 
01:06AM EST


 

Airport Tracker/Info


-or-


 

Live Flight TrackerFlight Track Log ✈ CES5437 ✈ 22-Apr-2013 ✈ ZSQD / TAO - ZPPP / KMG

Flight Track Log - Related Links

Times and Time Zones

All times are in EDT time to prevent confusion due to time zone crossing. See the CES5437 flight status page for this flight to view local times or setup timezone preferences in your user account.

Time Position Orientation Groundspeed Altitude Reporting Facility
EDT Latitude Longitude Course Direction KTS MPH feet Rate Location/Type
07:42AM 31.8837 112.5710 238° Southwest  Level Estimated
07:43AM 31.8237 112.4749 234° Southwest  Level Estimated
07:44AM 31.7636 112.3788 234° Southwest  Level Estimated
07:45AM 31.7035 112.2829 234° Southwest  Level Estimated
07:46AM 31.6432 112.1871 234° Southwest  Level Estimated
07:47AM 31.5829 112.0915 234° Southwest  Level Estimated
07:48AM 31.5226 111.9959 233° Southwest  Level Estimated
07:49AM 31.4621 111.9005 233° Southwest  Level Estimated
07:50AM 31.4016 111.8052 233° Southwest  Level Estimated
07:51AM 31.3410 111.7100 233° Southwest  Level Estimated
07:52AM 31.2804 111.6150 233° Southwest  Level Estimated
07:53AM 31.2196 111.5200 233° Southwest  Level Estimated
07:54AM 31.1588 111.4252 233° Southwest  Level Estimated
07:55AM 31.0980 111.3305 233° Southwest  Level Estimated
07:56AM 31.0371 111.2360 233° Southwest  Level Estimated
07:57AM 30.9760 111.1415 233° Southwest  Level Estimated
07:58AM 30.9150 111.0472 233° Southwest  Level Estimated
07:59AM 30.8538 110.9530 233° Southwest  Level Estimated
08:00AM 30.7926 110.8589 233° Southwest  Level Estimated
08:01AM 30.7313 110.7650 233° Southwest  Level Estimated
08:02AM 30.6700 110.6711 233° Southwest  Level Estimated
08:03AM 30.6086 110.5774 233° Southwest  Level Estimated
08:04AM 30.5471 110.4838 233° Southwest  Level Estimated
08:05AM 30.4856 110.3903 233° Southwest  Level Estimated
08:06AM 30.4240 110.2969 233° Southwest  Level Estimated
08:07AM 30.3623 110.2037 233° Southwest  Level Estimated
08:08AM 30.3006 110.1105 232° Southwest  Level Estimated
08:09AM 30.2387 110.0175 232° Southwest  Level Estimated
08:10AM 30.1769 109.9246 232° Southwest  Level Estimated
08:11AM 30.1149 109.8318 232° Southwest  Level Estimated
08:12AM 30.0529 109.7392 232° Southwest  Level Estimated
08:13AM 29.9909 109.6466 232° Southwest  Level Estimated
08:14AM 29.9287 109.5542 232° Southwest  Level Estimated
08:15AM 29.8665 109.4619 232° Southwest  Level Estimated
08:16AM 29.8043 109.3697 232° Southwest  Level Estimated
08:17AM 29.7419 109.2776 232° Southwest  Level Estimated
08:18AM 29.6796 109.1856 232° Southwest  Level Estimated
08:19AM 29.6171 109.0938 232° Southwest  Level Estimated
08:20AM 29.5546 109.0020 232° Southwest  Level Estimated
08:21AM 29.4920 108.9104 232° Southwest  Level Estimated
08:22AM 29.4294 108.8188 232° Southwest  Level Estimated
08:23AM 29.3666 108.7274 232° Southwest  Level Estimated
08:24AM 29.3039 108.6361 232° Southwest  Level Estimated
08:25AM 29.2411 108.5450 232° Southwest  Level Estimated
08:26AM 29.1782 108.4539 232° Southwest  Level Estimated
08:27AM 29.1152 108.3629 232° Southwest  Level Estimated
08:28AM 29.0522 108.2721 232° Southwest  Level Estimated
08:29AM 28.9891 108.1814 232° Southwest  Level Estimated
08:30AM 28.9260 108.0907 231° Southwest  Level Estimated
08:31AM 28.8628 108.0002 231° Southwest  Level Estimated
08:32AM 28.7995 107.9098 231° Southwest  Level Estimated
08:33AM 28.7362 107.8195 231° Southwest  Level Estimated
08:34AM 28.6728 107.7293 231° Southwest  Level Estimated
08:35AM 28.6094 107.6392 231° Southwest  Level Estimated
08:36AM 28.5459 107.5492 231° Southwest  Level Estimated
08:37AM 28.4823 107.4594 231° Southwest  Level Estimated
08:38AM 28.4187 107.3696 231° Southwest  Level Estimated
08:39AM 28.3550 107.2800 231° Southwest  Level Estimated
08:40AM 28.2913 107.1905 231° Southwest  Level Estimated
08:41AM 28.2275 107.1010 231° Southwest  Level Estimated
08:42AM 28.1637 107.0117 231° Southwest  Level Estimated
08:43AM 28.0998 106.9225 231° Southwest  Level Estimated
08:44AM 28.0358 106.8334 231° Southwest  Level Estimated
08:45AM 27.9718 106.7444 231° Southwest  Level Estimated
08:46AM 27.9077 106.6555 231° Southwest  Level Estimated
08:47AM 27.8436 106.5667 231° Southwest  Level Estimated
08:48AM 27.7794 106.4780 231° Southwest  Level Estimated
08:49AM 27.7151 106.3894 231° Southwest  Level Estimated
08:50AM 27.6508 106.3009 231° Southwest  Level Estimated
08:51AM 27.5865 106.2126 231° Southwest  Level Estimated
08:52AM 27.5220 106.1243 231° Southwest  Level Estimated
08:53AM 27.4576 106.0361 231° Southwest  Level Estimated
08:54AM 27.3930 105.9481 230° Southwest  Level Estimated
08:55AM 27.3284 105.8601 230° Southwest  Level Estimated
08:56AM 27.2638 105.7722 230° Southwest  Level Estimated
08:57AM 27.1991 105.6845 230° Southwest  Level Estimated
08:58AM 27.1344 105.5968 230° Southwest  Level Estimated
08:59AM 27.0696 105.5093 230° Southwest  Level Estimated
09:00AM 27.0047 105.4218 230° Southwest  Level Estimated
09:01AM 26.9398 105.3345 230° Southwest  Level Estimated
09:02AM 26.8748 105.2472 230° Southwest  Level Estimated
09:03AM 26.8098 105.1601 230° Southwest  Level Estimated
09:04AM 26.7447 105.0730 230° Southwest  Level Estimated
09:05AM 26.6796 104.9861 230° Southwest  Level Estimated
09:06AM 26.6145 104.8992 230° Southwest  Level Estimated
09:07AM 26.5492 104.8125 230° Southwest  Level Estimated
09:08AM 26.4839 104.7258 230° Southwest  Level Estimated
09:09AM 26.4186 104.6393 230° Southwest  Level Estimated
09:10AM 26.3532 104.5528 230° Southwest  Level Estimated
09:11AM 26.2878 104.4664 230° Southwest  Level Estimated
09:12AM 26.2223 104.3802 230° Southwest  Level Estimated
09:13AM 26.1567 104.2940 230° Southwest  Level Estimated
09:14AM 26.0912 104.2079 230° Southwest  Level Estimated
09:15AM 26.0255 104.1220 230° Southwest  Level Estimated
09:16AM 25.9598 104.0361 230° Southwest  Level Estimated
09:17AM 25.8941 103.9503 230° Southwest  Level Estimated
09:18AM 25.8283 103.8646 230° Southwest  Level Estimated
09:19AM 25.7624 103.7790 230° Southwest  Level Estimated
09:20AM 25.6965 103.6935 229° Southwest  Level Estimated
09:21AM 25.6306 103.6081 229° Southwest  Level Estimated
09:22AM 25.5646 103.5228 229° Southwest  Level Estimated
09:23AM 25.4986 103.4376 229° Southwest  Level Estimated
09:24AM 25.4325 103.3525 229° Southwest  Level Estimated
09:25AM 25.3663 103.2675 229° Southwest  Level Estimated
09:26AM 25.3001 103.1825 229° Southwest  Level Estimated
09:27AM 25.2339 103.0977 229° Southwest  Level Estimated
09:28AM 25.1676 103.0130 229° Southwest  Level Estimated
09:29AM 25.1019 102.9292 229° Southwest  Level Estimated
09:30AM 25.1019 102.9292 326° Northwest  Level Estimated
09:31AM 25.1019 102.9292 326° Northwest  Level Estimated
09:32AM 25.1019 102.9292 326° Northwest  Level Estimated
09:33AM 25.1019 102.9292 326° Northwest  Level Estimated
09:34AM 25.1019 102.9292 326° Northwest  Level Estimated
09:35AM 25.1019 102.9292 326° Northwest  Level Estimated
09:36AM 25.1019 102.9292 326° Northwest  Level Estimated
09:37AM 25.1019 102.9292 326° Northwest  Level Estimated
09:38AM 25.1019 102.9292 326° Northwest  Level Estimated
09:39AM 25.1019 102.9292 326° Northwest  Level Estimated
09:40AM 25.1019 102.9292 326° Northwest  Level Estimated
09:41AM 25.1019 102.9292 326° Northwest  Level Estimated
09:42AM 25.1019 102.9292 326° Northwest  Level Estimated
09:43AM 25.1019 102.9292 326° Northwest  Level Estimated
09:44AM 25.1019 102.9292 326° Northwest  Level Estimated